createdAt,value
2023-02-13T00:00:49.360Z,22.70
2023-02-13T00:03:25.063Z,24.33
2023-02-13T00:05:52.548Z,23.10
2023-02-13T00:08:20.014Z,22.80
2023-02-13T00:10:48.019Z,25.02
2023-02-13T00:13:16.034Z,23.58
2023-02-13T00:15:43.410Z,23.15
2023-02-13T00:18:11.377Z,23.10
2023-02-13T00:20:38.584Z,23.90
2023-02-13T00:23:06.368Z,22.60
2023-02-13T00:25:33.812Z,22.88
2023-02-13T00:28:01.659Z,22.25
2023-02-13T00:30:29.181Z,21.60
2023-02-13T00:32:56.983Z,22.65
2023-02-13T00:35:25.231Z,23.63
2023-02-13T00:37:53.709Z,23.05
2023-02-13T00:40:25.127Z,22.15
2023-02-13T00:42:52.861Z,22.67
2023-02-13T00:45:20.289Z,21.90
2023-02-13T00:47:48.446Z,21.80
2023-02-13T00:50:15.976Z,22.38
2023-02-13T00:52:43.497Z,22.05
2023-02-13T00:55:13.120Z,20.85
2023-02-13T00:57:40.824Z,21.45
2023-02-13T01:00:08.726Z,21.27
2023-02-13T01:02:36.330Z,21.35
2023-02-13T01:05:03.907Z,21.65
2023-02-13T01:07:31.364Z,25.50
2023-02-13T01:09:58.429Z,24.25
2023-02-13T01:12:27.665Z,21.08
2023-02-13T01:14:54.918Z,20.65
2023-02-13T01:17:22.682Z,19.45
2023-02-13T01:19:49.881Z,19.48
2023-02-13T01:22:17.517Z,21.10
2023-02-13T01:24:44.835Z,20.40
2023-02-13T01:27:12.394Z,19.67
2023-02-13T01:29:39.596Z,19.48
2023-02-13T01:32:07.148Z,18.58
2023-02-13T01:34:34.698Z,19.65
2023-02-13T01:37:02.278Z,18.17
2023-02-13T01:39:29.593Z,17.80
2023-02-13T01:41:57.221Z,18.50
2023-02-13T01:45:12.525Z,18.17
2023-02-13T01:47:45.758Z,16.52
2023-02-13T01:50:31.657Z,18.13
2023-02-13T01:53:08.526Z,17.38
2023-02-13T01:55:45.155Z,17.08
2023-02-13T01:58:16.009Z,17.20
2023-02-13T02:00:50.013Z,16.07
2023-02-13T02:03:40.355Z,17.05
2023-02-13T02:06:15.194Z,17.08
2023-02-13T02:08:42.969Z,15.93
2023-02-13T02:11:25.758Z,16.75
2023-02-13T02:13:53.580Z,16.63
2023-02-13T02:16:32.686Z,17.08
2023-02-13T02:19:03.500Z,17.33
2023-02-13T02:21:49.309Z,18.25
2023-02-13T02:24:54.677Z,17.08
2023-02-13T02:27:34.187Z,15.75
2023-02-13T02:30:36.217Z,17.05
2023-02-13T02:33:12.753Z,16.02
2023-02-13T02:35:47.900Z,16.50
2023-02-13T02:38:23.289Z,15.80
2023-02-13T02:41:02.468Z,15.23
2023-02-13T02:43:51.123Z,15.95
2023-02-13T02:46:25.253Z,15.60
2023-02-13T02:51:45.542Z,16.08
2023-02-13T02:54:43.118Z,17.08
2023-02-13T02:57:23.353Z,18.25
2023-02-13T03:00:16.722Z,18.92
2023-02-13T03:03:02.614Z,16.58
2023-02-13T03:05:50.241Z,15.70
2023-02-13T03:08:38.339Z,16.90
2023-02-13T03:11:24.696Z,15.20
2023-02-13T03:13:53.651Z,16.52
2023-02-13T03:16:42.046Z,16.42
2023-02-13T03:19:46.335Z,15.80
2023-02-13T03:22:39.611Z,17.17
2023-02-13T03:25:36.324Z,16.30
2023-02-13T03:28:49.844Z,15.77
2023-02-13T03:31:43.593Z,16.90
2023-02-13T03:34:17.530Z,15.00
2023-02-13T03:37:07.993Z,15.98
2023-02-13T03:39:56.778Z,16.35
2023-02-13T03:42:49.212Z,16.02
2023-02-13T03:45:43.107Z,14.70
2023-02-13T03:48:31.545Z,15.73
2023-02-13T03:51:00.594Z,16.40
2023-02-13T03:53:30.161Z,16.20
2023-02-13T03:56:18.056Z,16.17
2023-02-13T03:59:09.564Z,15.52
2023-02-13T04:01:37.979Z,15.73
2023-02-13T04:04:05.596Z,16.80
2023-02-13T04:06:56.402Z,15.82
2023-02-13T04:09:28.072Z,15.32
2023-02-13T04:12:19.532Z,15.32
2023-02-13T04:14:55.212Z,15.95
2023-02-13T04:17:30.418Z,15.65
2023-02-13T04:19:58.230Z,16.23
2023-02-13T04:22:25.519Z,15.68
2023-02-13T04:24:52.970Z,15.20
2023-02-13T04:27:20.396Z,14.75
2023-02-13T04:29:47.974Z,14.63
2023-02-13T04:32:15.492Z,15.75
2023-02-13T04:34:43.272Z,15.57
2023-02-13T04:37:10.652Z,15.23
2023-02-13T04:39:38.380Z,15.32
2023-02-13T04:42:05.722Z,16.15
2023-02-13T04:44:33.432Z,15.63
2023-02-13T04:47:00.896Z,15.60
2023-02-13T04:49:28.659Z,16.05
2023-02-13T04:51:56.055Z,15.75
2023-02-13T04:54:23.565Z,16.05
2023-02-13T04:56:50.849Z,16.60
2023-02-13T04:59:18.640Z,16.17
2023-02-13T05:01:46.075Z,17.40
2023-02-13T05:04:16.381Z,15.98
2023-02-13T05:06:43.855Z,15.95
2023-02-13T05:09:11.342Z,15.45
2023-02-13T05:11:38.503Z,15.88
2023-02-13T05:14:06.164Z,14.23
2023-02-13T05:16:33.851Z,16.02
2023-02-13T05:19:01.625Z,16.27
2023-02-13T05:21:47.442Z,16.20
2023-02-13T05:24:14.927Z,19.13
2023-02-13T05:26:42.359Z,21.30
2023-02-13T05:29:23.216Z,17.90
2023-02-13T05:31:53.241Z,16.85
2023-02-13T05:34:21.763Z,17.35
2023-02-13T05:36:49.591Z,16.83
2023-02-13T05:39:17.266Z,16.20
2023-02-13T05:41:45.666Z,15.80
2023-02-13T05:44:13.650Z,18.10
2023-02-13T05:46:41.615Z,15.10
2023-02-13T05:49:10.620Z,14.40
2023-02-13T05:51:37.849Z,17.23
2023-02-13T05:54:05.600Z,15.63
2023-02-13T05:56:32.738Z,14.63
2023-02-13T05:59:00.492Z,16.15
2023-02-13T06:01:27.708Z,15.98
2023-02-13T06:03:57.139Z,14.98
2023-02-13T06:06:25.926Z,16.38
2023-02-13T06:08:53.860Z,16.45
2023-02-13T06:11:21.372Z,16.45
2023-02-13T06:13:49.132Z,15.95
2023-02-13T06:16:16.279Z,15.48
2023-02-13T06:18:43.868Z,16.17
2023-02-13T06:21:11.100Z,13.68
2023-02-13T06:23:38.916Z,14.93
2023-02-13T06:26:08.083Z,15.07
2023-02-13T06:28:35.992Z,15.48
2023-02-13T06:31:03.414Z,16.00
2023-02-13T06:33:31.215Z,15.82
2023-02-13T06:35:58.485Z,15.32
2023-02-13T06:38:25.978Z,15.00
2023-02-13T06:40:53.359Z,15.18
2023-02-13T06:43:21.129Z,14.68
2023-02-13T06:45:48.275Z,13.98
2023-02-13T06:48:15.624Z,14.55
2023-02-13T06:50:42.938Z,15.30
2023-02-13T06:53:10.695Z,18.00
2023-02-13T06:55:39.583Z,14.68
2023-02-13T06:58:07.003Z,14.25
2023-02-13T07:00:34.250Z,14.00
2023-02-13T07:03:04.636Z,12.60
2023-02-13T07:05:33.353Z,13.13
2023-02-13T07:08:00.935Z,13.23
2023-02-13T07:10:28.308Z,12.75
2023-02-13T07:13:05.264Z,12.45
2023-02-13T07:15:34.035Z,12.70
2023-02-13T07:18:02.106Z,13.00
2023-02-13T07:20:29.656Z,12.63
2023-02-13T07:23:01.999Z,13.15
2023-02-13T07:25:29.897Z,12.43
2023-02-13T07:28:05.101Z,11.82
2023-02-13T07:30:33.380Z,11.73
2023-02-13T07:33:04.892Z,11.05
2023-02-13T07:35:32.522Z,11.23
2023-02-13T07:38:00.959Z,10.95
2023-02-13T07:40:28.384Z,11.63
2023-02-13T07:42:56.632Z,11.27
2023-02-13T07:45:23.981Z,12.30
2023-02-13T07:47:51.578Z,10.50
2023-02-13T07:50:18.899Z,11.02
2023-02-13T07:52:54.098Z,10.43
2023-02-13T07:55:21.765Z,11.65
2023-02-13T07:57:49.746Z,10.43
2023-02-13T08:00:17.609Z,11.65
2023-02-13T08:02:45.800Z,10.30
2023-02-13T08:05:13.153Z,9.95
2023-02-13T08:07:40.974Z,11.20
2023-02-13T08:10:27.371Z,10.23
2023-02-13T08:12:55.395Z,10.95
2023-02-13T08:15:23.956Z,10.80
2023-02-13T08:17:51.834Z,10.40
2023-02-13T08:20:19.196Z,10.73
2023-02-13T08:22:46.713Z,11.57
2023-02-13T08:25:14.224Z,10.90
2023-02-13T08:27:41.855Z,10.90
2023-02-13T08:30:10.272Z,11.55
2023-02-13T08:32:53.076Z,10.40
2023-02-13T08:35:20.812Z,11.25
2023-02-13T08:37:48.430Z,10.27
2023-02-13T08:40:15.606Z,10.38
2023-02-13T08:42:43.818Z,10.68
2023-02-13T08:45:11.980Z,10.82
2023-02-13T08:47:40.139Z,9.23
2023-02-13T08:50:08.156Z,10.85
2023-02-13T08:52:35.887Z,9.20
2023-02-13T08:55:03.925Z,10.07
2023-02-13T08:57:31.727Z,9.15
2023-02-13T08:59:59.006Z,9.18
2023-02-13T09:02:26.665Z,9.05
2023-02-13T09:04:53.894Z,9.30
2023-02-13T09:07:21.156Z,10.23
2023-02-13T09:09:48.521Z,9.10
2023-02-13T09:12:16.163Z,10.65
2023-02-13T09:14:43.542Z,9.98
2023-02-13T09:17:11.401Z,10.32
2023-02-13T09:19:38.695Z,9.45
2023-02-13T09:22:06.441Z,10.43
2023-02-13T09:24:33.805Z,8.90
2023-02-13T09:27:01.377Z,8.77
2023-02-13T09:29:31.895Z,8.52
2023-02-13T09:31:59.690Z,8.57
2023-02-13T09:34:27.390Z,7.70
2023-02-13T09:36:55.101Z,7.50
2023-02-13T09:39:22.720Z,8.02
2023-02-13T09:41:52.524Z,8.10
2023-02-13T09:44:42.352Z,7.72
2023-02-13T09:47:28.695Z,7.97
2023-02-13T09:49:59.344Z,7.97
2023-02-13T09:52:32.838Z,8.68
2023-02-13T09:55:04.430Z,8.40
2023-02-13T09:57:37.603Z,8.68
2023-02-13T10:00:13.500Z,8.75
2023-02-13T10:02:57.410Z,8.18
2023-02-13T10:05:37.174Z,9.38
2023-02-13T10:08:12.972Z,9.10
2023-02-13T10:11:17.776Z,9.32
2023-02-13T10:14:04.090Z,9.50
2023-02-13T10:16:38.476Z,9.43
2023-02-13T10:19:32.276Z,8.98
2023-02-13T10:22:04.945Z,9.18
2023-02-13T10:24:54.362Z,9.00
2023-02-13T10:27:26.866Z,10.65
2023-02-13T10:30:23.695Z,9.35
2023-02-13T10:33:18.606Z,10.30
2023-02-13T10:36:24.736Z,10.05
2023-02-13T10:39:02.986Z,10.48
2023-02-13T10:41:49.240Z,11.00
2023-02-13T10:44:42.514Z,11.55
2023-02-13T10:47:41.055Z,10.55
2023-02-13T10:50:31.262Z,10.98
2023-02-13T10:53:41.165Z,11.40
2023-02-13T10:56:11.287Z,10.13
2023-02-13T10:58:57.486Z,11.32
2023-02-13T11:01:34.208Z,11.07
2023-02-13T11:04:13.532Z,11.57
2023-02-13T11:06:55.700Z,11.43
2023-02-13T11:09:24.243Z,10.40
2023-02-13T11:11:52.414Z,10.23
2023-02-13T11:14:25.314Z,12.13
2023-02-13T11:17:06.088Z,12.43
2023-02-13T11:19:37.378Z,11.80
2023-02-13T11:22:16.868Z,12.45
2023-02-13T11:24:54.194Z,12.20
2023-02-13T11:27:27.364Z,12.13
2023-02-13T11:29:57.653Z,11.82
2023-02-13T11:32:35.341Z,11.93
2023-02-13T11:35:29.497Z,11.90
2023-02-13T11:38:15.722Z,11.02
2023-02-13T11:40:48.804Z,11.40
2023-02-13T11:43:30.620Z,11.55
2023-02-13T11:46:03.754Z,11.93
2023-02-13T11:48:31.486Z,12.13
2023-02-13T11:50:59.420Z,11.70
2023-02-13T11:53:33.149Z,11.93
2023-02-13T11:56:15.301Z,12.30
2023-02-13T11:58:43.312Z,12.48
2023-02-13T12:01:23.073Z,11.30
2023-02-13T12:04:18.153Z,11.35
2023-02-13T12:06:59.561Z,12.15
2023-02-13T12:09:28.520Z,14.13
2023-02-13T12:11:59.509Z,13.55
2023-02-13T12:14:31.037Z,15.05
2023-02-13T12:17:10.868Z,12.50
2023-02-13T12:19:45.940Z,12.93
2023-02-13T12:22:52.485Z,11.90
2023-02-13T12:25:24.218Z,11.13
2023-02-13T12:28:27.150Z,11.07
2023-02-13T12:31:13.123Z,10.60
2023-02-13T12:34:00.650Z,13.55
2023-02-13T12:36:53.120Z,9.85
2023-02-13T12:39:39.328Z,10.02
2023-02-13T12:42:38.516Z,9.73
2023-02-13T12:45:18.555Z,9.23
2023-02-13T12:48:11.914Z,8.68
2023-02-13T12:50:46.474Z,8.98
2023-02-13T12:53:39.845Z,9.02
2023-02-13T12:59:10.081Z,7.82
2023-02-13T13:02:09.619Z,8.40
2023-02-13T13:05:14.312Z,8.02
2023-02-13T13:08:17.638Z,8.20
2023-02-13T13:10:44.919Z,7.78
2023-02-13T13:13:24.389Z,8.18
2023-02-13T13:16:16.576Z,6.63
2023-02-13T13:18:44.555Z,6.53
2023-02-13T13:21:14.569Z,6.60
2023-02-13T13:23:44.601Z,6.35
2023-02-13T13:26:15.166Z,6.20
2023-02-13T13:28:44.370Z,5.78
2023-02-13T13:31:13.876Z,5.47
2023-02-13T13:33:44.465Z,5.45
2023-02-13T13:36:30.596Z,4.68
2023-02-13T13:39:04.274Z,5.00
2023-02-13T13:42:15.347Z,5.68
2023-02-13T13:44:49.227Z,4.63
2023-02-13T13:47:41.291Z,4.60
2023-02-13T13:50:36.078Z,4.28
2023-02-13T13:53:10.402Z,4.93
2023-02-13T13:55:50.880Z,4.78
2023-02-13T13:58:31.678Z,4.22
2023-02-13T14:01:25.281Z,3.50
2023-02-13T14:04:02.485Z,4.20
2023-02-13T14:06:51.894Z,4.47
2023-02-13T14:09:39.822Z,4.10
2023-02-13T14:12:25.759Z,4.63
2023-02-13T14:14:54.285Z,4.95
2023-02-13T14:17:46.978Z,5.22
2023-02-13T14:20:22.293Z,5.53
2023-02-13T14:22:50.171Z,5.65
2023-02-13T14:25:29.764Z,5.68
2023-02-13T14:28:05.010Z,5.18
2023-02-13T14:30:37.245Z,6.03
2023-02-13T14:33:07.586Z,6.03
2023-02-13T14:35:37.570Z,6.82
2023-02-13T14:38:08.277Z,6.55
2023-02-13T14:40:52.644Z,6.53
2023-02-13T14:43:27.877Z,6.93
2023-02-13T14:45:57.198Z,7.03
2023-02-13T14:48:45.671Z,6.93
2023-02-13T14:51:37.334Z,6.57
2023-02-13T14:54:15.438Z,6.68
2023-02-13T14:56:45.532Z,10.05
2023-02-13T14:59:23.335Z,7.25
2023-02-13T15:02:34.278Z,7.20
2023-02-13T15:05:05.013Z,7.07
2023-02-13T15:07:37.403Z,7.38
2023-02-13T15:10:25.727Z,6.82
2023-02-13T15:13:01.341Z,7.32
2023-02-13T15:15:38.358Z,7.35
2023-02-13T15:18:10.184Z,7.40
2023-02-13T15:20:40.219Z,9.67
2023-02-13T15:23:07.754Z,7.43
2023-02-13T15:25:39.644Z,8.63
2023-02-13T15:28:20.170Z,9.10
2023-02-13T15:31:00.251Z,8.15
2023-02-13T15:33:33.114Z,8.80
2023-02-13T15:36:04.766Z,9.88
2023-02-13T15:38:36.623Z,10.18
2023-02-13T15:41:23.404Z,10.40
2023-02-13T15:43:58.302Z,8.93
2023-02-13T15:46:42.171Z,9.70
2023-02-13T15:49:15.626Z,10.30
2023-02-13T15:51:44.130Z,8.68
2023-02-13T15:54:31.440Z,9.30
2023-02-13T15:57:07.319Z,9.63
2023-02-13T15:59:38.213Z,10.48
2023-02-13T16:02:13.066Z,9.57
2023-02-13T16:04:41.696Z,10.10
2023-02-13T16:07:12.236Z,11.27
2023-02-13T16:09:40.107Z,12.32
2023-02-13T16:12:26.913Z,12.63
2023-02-13T16:15:02.480Z,8.88
2023-02-13T16:17:34.489Z,10.05
2023-02-13T16:20:08.786Z,10.20
2023-02-13T16:22:44.221Z,11.02
2023-02-13T16:25:14.687Z,11.23
2023-02-13T16:27:45.975Z,9.43
2023-02-13T16:30:42.353Z,9.55
2023-02-13T16:33:16.292Z,9.27
2023-02-13T16:35:45.638Z,10.32
2023-02-13T16:38:33.118Z,9.75
2023-02-13T16:41:23.840Z,11.30
2023-02-13T16:43:53.261Z,8.90
2023-02-13T16:46:30.795Z,8.25
2023-02-13T16:49:01.495Z,9.75
2023-02-13T16:51:40.504Z,11.55
2023-02-13T16:54:11.331Z,10.38
2023-02-13T16:56:50.039Z,10.05
2023-02-13T16:59:17.798Z,8.80
2023-02-13T17:01:45.074Z,10.00
2023-02-13T17:04:23.723Z,12.55
2023-02-13T17:06:57.457Z,9.27
2023-02-13T17:09:24.988Z,9.00
2023-02-13T17:11:54.165Z,8.02
2023-02-13T17:14:22.044Z,6.80
2023-02-13T17:16:49.632Z,9.05
2023-02-13T17:19:17.258Z,7.40
2023-02-13T17:21:44.718Z,8.45
2023-02-13T17:24:17.942Z,7.30
2023-02-13T17:26:45.354Z,7.68
2023-02-13T17:29:13.025Z,7.00
2023-02-13T17:31:40.556Z,6.90
2023-02-13T17:34:08.322Z,8.60
2023-02-13T17:36:36.058Z,6.85
2023-02-13T17:39:03.976Z,6.13
2023-02-13T17:41:31.445Z,6.75
2023-02-13T17:43:59.230Z,6.18
2023-02-13T17:46:26.745Z,7.30
2023-02-13T17:48:54.421Z,7.13
2023-02-13T17:51:21.875Z,7.75
2023-02-13T17:53:50.422Z,7.57
2023-02-13T17:56:18.023Z,7.60
2023-02-13T17:58:45.804Z,7.70
2023-02-13T18:01:13.278Z,9.80
2023-02-13T18:03:40.779Z,8.00
2023-02-13T18:06:13.210Z,7.85
2023-02-13T18:08:41.135Z,8.10
2023-02-13T18:11:12.380Z,9.02
2023-02-13T18:13:44.180Z,11.88
2023-02-13T18:16:11.748Z,9.15
2023-02-13T18:18:39.519Z,9.75
2023-02-13T18:21:06.919Z,10.73
2023-02-13T18:23:34.632Z,15.02
2023-02-13T18:26:10.291Z,24.15
2023-02-13T18:28:38.207Z,14.60
2023-02-13T18:31:05.733Z,11.20
2023-02-13T18:33:33.363Z,13.65
2023-02-13T18:36:02.656Z,11.82
2023-02-13T18:38:30.444Z,9.50
2023-02-13T18:40:58.206Z,9.73
2023-02-13T18:43:26.123Z,11.13
2023-02-13T18:45:53.705Z,9.60
2023-02-13T18:48:21.455Z,9.82
2023-02-13T18:50:49.024Z,10.13
2023-02-13T18:53:16.745Z,9.43
2023-02-13T18:55:44.029Z,11.60
2023-02-13T18:58:11.747Z,10.40
2023-02-13T19:00:39.139Z,9.90
2023-02-13T19:03:06.680Z,13.38
2023-02-13T19:05:34.415Z,10.23
2023-02-13T19:08:02.392Z,10.52
2023-02-13T19:10:29.760Z,10.60
2023-02-13T19:12:57.530Z,10.45
2023-02-13T19:15:24.819Z,9.90
2023-02-13T19:17:57.271Z,10.52
2023-02-13T19:20:24.673Z,9.90
2023-02-13T19:22:52.693Z,10.55
2023-02-13T19:25:22.122Z,9.55
2023-02-13T19:27:49.854Z,9.32
2023-02-13T19:30:17.350Z,9.77
2023-02-13T19:32:45.188Z,9.43
2023-02-13T19:35:12.513Z,8.90
2023-02-13T19:37:44.043Z,11.00
2023-02-13T19:40:13.551Z,9.45
2023-02-13T19:42:41.242Z,9.32
2023-02-13T19:45:10.550Z,7.57
2023-02-13T19:47:39.166Z,8.25
2023-02-13T19:50:07.288Z,10.23
2023-02-13T19:52:34.999Z,9.70
2023-02-13T19:55:02.514Z,12.07
2023-02-13T19:57:30.542Z,9.15
2023-02-13T20:00:01.029Z,8.20
2023-02-13T20:02:28.940Z,7.53
2023-02-13T20:04:56.601Z,8.30
2023-02-13T20:07:24.330Z,7.18
2023-02-13T20:09:51.666Z,7.47
2023-02-13T20:12:19.378Z,8.27
2023-02-13T20:14:46.706Z,7.10
2023-02-13T20:17:14.475Z,8.80
2023-02-13T20:19:42.094Z,8.13
2023-02-13T20:22:09.977Z,7.07
2023-02-13T20:24:37.519Z,6.53
2023-02-13T20:27:05.270Z,7.03
2023-02-13T20:29:33.863Z,6.95
2023-02-13T20:32:02.236Z,7.95
2023-02-13T20:34:31.621Z,7.80
2023-02-13T20:37:05.278Z,7.38
2023-02-13T20:39:32.668Z,7.95
2023-02-13T20:42:00.439Z,7.85
2023-02-13T20:44:29.668Z,8.43
2023-02-13T20:46:58.723Z,8.55
2023-02-13T20:49:27.189Z,9.43
2023-02-13T20:51:54.937Z,7.63
2023-02-13T20:54:22.305Z,6.85
2023-02-13T20:56:50.150Z,8.18
2023-02-13T20:59:17.607Z,7.68
2023-02-13T21:01:46.743Z,7.18
2023-02-13T21:04:19.290Z,8.43
2023-02-13T21:06:47.699Z,7.63
2023-02-13T21:09:15.812Z,7.35
2023-02-13T21:11:44.911Z,8.45
2023-02-13T21:14:13.079Z,7.97
2023-02-13T21:16:41.855Z,9.27
2023-02-13T21:19:13.598Z,7.50
2023-02-13T21:21:44.284Z,10.93
2023-02-13T21:24:17.646Z,13.75
2023-02-13T21:26:47.008Z,8.55
2023-02-13T21:29:14.521Z,7.95
2023-02-13T21:31:45.137Z,8.82
2023-02-13T21:34:13.641Z,8.63
2023-02-13T21:36:41.438Z,7.68
2023-02-13T21:39:10.252Z,8.00
2023-02-13T21:41:40.851Z,10.35
2023-02-13T21:44:08.318Z,8.65
2023-02-13T21:46:36.168Z,7.97
2023-02-13T21:49:05.935Z,7.90
2023-02-13T21:51:35.711Z,9.10
2023-02-13T21:54:04.599Z,7.78
2023-02-13T21:56:38.463Z,8.30
2023-02-13T21:59:06.809Z,7.35
2023-02-13T22:01:46.787Z,8.07
2023-02-13T22:04:14.270Z,8.10
2023-02-13T22:06:41.872Z,11.05
2023-02-13T22:09:11.953Z,8.18
2023-02-13T22:11:40.005Z,9.20
2023-02-13T22:14:10.709Z,7.50
2023-02-13T22:16:39.448Z,8.15
2023-02-13T22:19:07.299Z,8.10
2023-02-13T22:21:36.509Z,8.95
2023-02-13T22:24:04.170Z,8.48
2023-02-13T22:26:36.500Z,7.72
2023-02-13T22:29:06.599Z,8.45
2023-02-13T22:31:35.192Z,7.85
2023-02-13T22:34:04.334Z,8.82
2023-02-13T22:36:35.039Z,8.20
2023-02-13T22:39:02.540Z,6.85
2023-02-13T22:41:30.340Z,8.55
2023-02-13T22:43:57.820Z,7.75
2023-02-13T22:46:31.206Z,8.25
2023-02-13T22:48:59.805Z,7.53
2023-02-13T22:51:31.327Z,7.63
2023-02-13T22:53:59.264Z,7.97
2023-02-13T22:56:28.547Z,7.97
2023-02-13T22:58:55.992Z,7.68
2023-02-13T23:01:24.981Z,8.05
2023-02-13T23:03:52.518Z,8.93
2023-02-13T23:06:21.986Z,8.10
2023-02-13T23:08:52.798Z,7.90
2023-02-13T23:11:42.280Z,8.85
2023-02-13T23:14:10.443Z,8.20
2023-02-13T23:16:57.847Z,9.93
2023-02-13T23:19:27.412Z,8.02
2023-02-13T23:21:55.773Z,8.38
2023-02-13T23:24:23.058Z,7.88
2023-02-13T23:26:50.878Z,9.38
2023-02-13T23:29:18.425Z,7.97
2023-02-13T23:31:46.232Z,7.93
2023-02-13T23:34:13.600Z,8.60
2023-02-13T23:36:41.272Z,7.15
2023-02-13T23:39:08.628Z,7.40
2023-02-13T23:41:36.129Z,7.32
2023-02-13T23:44:03.537Z,7.72
2023-02-13T23:46:31.193Z,6.88
2023-02-13T23:48:58.580Z,7.38
2023-02-13T23:51:26.470Z,7.30
2023-02-13T23:53:56.356Z,7.30
2023-02-13T23:56:25.366Z,7.30
2023-02-13T23:58:53.234Z,7.43
